METAR Data
IDs: Format: Raw Decoded Include TAF

Data at: 0619 UTC 24 Sep 2020

KSNA 240553Z 20003KT 10SM CLR 21/17 A2995 RMK AO2 SLP139 LAST T02060172 10278 20206 58001

KSNA 240520Z 2406/2506 21005KT P6SM SKC
  FM241900 25008KT P6SM SKC
  FM250200 24004KT P6SM SCT008